createdAt,value
2022-10-07T00:03:42.166Z,1029
2022-10-07T00:05:42.308Z,1029
2022-10-07T00:07:43.356Z,1029
2022-10-07T00:09:42.134Z,1029
2022-10-07T00:11:43.470Z,1029
2022-10-07T00:13:42.991Z,1029
2022-10-07T00:15:45.632Z,1029
2022-10-07T00:17:42.395Z,1029
2022-10-07T00:19:43.469Z,1029
2022-10-07T00:21:43.856Z,1029
2022-10-07T00:23:42.132Z,1029
2022-10-07T00:25:43.887Z,1029
2022-10-07T00:27:42.357Z,1029
2022-10-07T00:29:43.879Z,1029
2022-10-07T00:31:42.630Z,1029
2022-10-07T00:33:42.161Z,1029
2022-10-07T00:35:43.052Z,1029
2022-10-07T00:37:42.384Z,1029
2022-10-07T00:39:42.147Z,1029
2022-10-07T00:41:42.679Z,1029
2022-10-07T00:43:43.337Z,1029
2022-10-07T00:45:42.176Z,1029
2022-10-07T00:47:43.496Z,1029
2022-10-07T00:49:42.152Z,1029
2022-10-07T00:51:42.151Z,1029
2022-10-07T00:53:49.064Z,1029
2022-10-07T00:55:43.891Z,1029
2022-10-07T00:57:42.412Z,1029
2022-10-07T00:59:43.489Z,1029
2022-10-07T01:01:42.543Z,1029
2022-10-07T01:03:42.143Z,1028
2022-10-07T01:05:42.181Z,1028
2022-10-07T01:07:42.909Z,1028
2022-10-07T01:09:42.162Z,1028
2022-10-07T01:11:42.174Z,1028
2022-10-07T01:13:46.871Z,1028
2022-10-07T01:15:42.149Z,1028
2022-10-07T01:17:43.303Z,1028
2022-10-07T01:19:42.180Z,1028
2022-10-07T01:21:43.853Z,1028
2022-10-07T01:23:42.175Z,1028
2022-10-07T01:25:43.460Z,1028
2022-10-07T01:27:42.409Z,1028
2022-10-07T01:29:42.178Z,1028
2022-10-07T01:31:43.468Z,1028
2022-10-07T01:33:42.161Z,1028
2022-10-07T01:35:43.039Z,1028
2022-10-07T01:37:42.432Z,1028
2022-10-07T01:39:42.152Z,1028
2022-10-07T01:41:43.617Z,1028
2022-10-07T01:43:42.149Z,1028
2022-10-07T01:45:43.946Z,1028
2022-10-07T01:47:42.379Z,1028
2022-10-07T01:49:42.975Z,1028
2022-10-07T01:51:42.178Z,1028
2022-10-07T01:53:42.154Z,1028
2022-10-07T01:55:43.024Z,1028
2022-10-07T01:57:42.381Z,1028
2022-10-07T01:59:45.084Z,1028
2022-10-07T02:01:42.263Z,1028
2022-10-07T02:03:42.234Z,1028
2022-10-07T02:05:46.481Z,1028
2022-10-07T02:07:42.807Z,1028
2022-10-07T02:09:42.225Z,1028
2022-10-07T02:11:42.154Z,1028
2022-10-07T02:13:43.193Z,1028
2022-10-07T02:15:42.211Z,1028
2022-10-07T02:17:44.651Z,1028
2022-10-07T02:19:42.149Z,1028
2022-10-07T02:21:42.189Z,1028
2022-10-07T02:23:42.153Z,1028
2022-10-07T02:25:42.181Z,1028
2022-10-07T02:27:42.405Z,1028
2022-10-07T02:29:42.156Z,1028
2022-10-07T02:33:42.162Z,1028
2022-10-07T02:35:42.199Z,1028
2022-10-07T02:37:42.292Z,1028
2022-10-07T02:39:42.200Z,1028
2022-10-07T02:41:42.286Z,1027
2022-10-07T02:43:46.185Z,1027
2022-10-07T02:45:42.188Z,1027
2022-10-07T02:47:45.681Z,1028
2022-10-07T02:49:42.164Z,1027
2022-10-07T02:51:43.085Z,1027
2022-10-07T02:53:42.161Z,1027
2022-10-07T02:55:42.199Z,1027
2022-10-07T02:57:42.409Z,1027
2022-10-07T02:59:42.155Z,1027
2022-10-07T03:01:43.579Z,1027
2022-10-07T03:03:42.194Z,1027
2022-10-07T03:05:44.416Z,1027
2022-10-07T03:07:42.459Z,1027
2022-10-07T03:09:42.159Z,1027
2022-10-07T03:11:42.218Z,1027
2022-10-07T03:13:42.158Z,1027
2022-10-07T03:15:42.689Z,1027
2022-10-07T03:17:42.431Z,1027
2022-10-07T03:19:42.736Z,1027
2022-10-07T03:21:44.487Z,1027
2022-10-07T03:23:43.076Z,1027
2022-10-07T03:25:43.355Z,1027
2022-10-07T03:29:43.852Z,1027
2022-10-07T03:31:42.213Z,1027
2022-10-07T03:33:42.203Z,1027
2022-10-07T03:35:43.064Z,1027
2022-10-07T03:37:42.410Z,1027
2022-10-07T03:39:43.516Z,1027
2022-10-07T03:41:43.432Z,1027
2022-10-07T03:43:42.204Z,1027
2022-10-07T03:45:43.164Z,1027
2022-10-07T03:47:46.791Z,1027
2022-10-07T03:49:43.075Z,1027
2022-10-07T03:51:43.718Z,1027
2022-10-07T03:53:42.197Z,1027
2022-10-07T03:55:42.186Z,1027
2022-10-07T03:57:42.375Z,1027
2022-10-07T03:59:42.162Z,1027
2022-10-07T04:01:42.230Z,1027
2022-10-07T04:03:42.182Z,1027
2022-10-07T04:05:42.153Z,1027
2022-10-07T04:07:42.348Z,1027
2022-10-07T04:09:42.176Z,1027
2022-10-07T04:11:42.165Z,1027
2022-10-07T04:13:42.190Z,1027
2022-10-07T04:15:42.217Z,1027
2022-10-07T04:17:42.264Z,1027
2022-10-07T04:19:42.163Z,1027
2022-10-07T04:21:42.198Z,1027
2022-10-07T04:23:43.428Z,1027
2022-10-07T04:25:43.946Z,1027
2022-10-07T04:27:51.471Z,1027
2022-10-07T04:29:42.158Z,1027
2022-10-07T04:31:42.229Z,1027
2022-10-07T04:33:42.205Z,1027
2022-10-07T04:35:48.363Z,1027
2022-10-07T04:37:42.463Z,1027
2022-10-07T04:39:59.535Z,1027
2022-10-07T04:41:42.210Z,1027
2022-10-07T04:43:42.234Z,1027
2022-10-07T04:45:43.894Z,1027
2022-10-07T04:47:43.367Z,1027
2022-10-07T04:49:42.172Z,1027
2022-10-07T04:51:42.178Z,1027
2022-10-07T04:53:42.305Z,1027
2022-10-07T04:55:42.231Z,1027
2022-10-07T04:57:42.386Z,1027
2022-10-07T04:59:43.140Z,1027
2022-10-07T05:01:43.941Z,1027
2022-10-07T05:03:47.975Z,1027
2022-10-07T05:05:42.196Z,1027
2022-10-07T05:07:42.487Z,1027
2022-10-07T05:09:44.172Z,1027
2022-10-07T05:11:42.209Z,1027
2022-10-07T05:13:42.180Z,1027
2022-10-07T05:15:42.170Z,1027
2022-10-07T05:17:42.558Z,1027
2022-10-07T05:19:43.080Z,1027
2022-10-07T05:21:42.166Z,1027
2022-10-07T05:23:43.075Z,1027
2022-10-07T05:25:45.779Z,1027
2022-10-07T05:27:42.233Z,1027
2022-10-07T05:29:42.204Z,1027
2022-10-07T05:31:47.987Z,1027
2022-10-07T05:33:42.619Z,1027
2022-10-07T05:35:43.926Z,1027
2022-10-07T05:37:46.430Z,1027
2022-10-07T05:39:42.215Z,1027
2022-10-07T05:41:45.507Z,1027
2022-10-07T05:43:42.190Z,1027
2022-10-07T05:45:42.270Z,1027
2022-10-07T05:47:45.777Z,1027
2022-10-07T05:49:45.328Z,1027
2022-10-07T05:51:46.958Z,1027
2022-10-07T05:53:42.201Z,1027
2022-10-07T05:55:44.537Z,1027
2022-10-07T05:57:44.112Z,1026
2022-10-07T05:59:42.177Z,1027
2022-10-07T06:01:42.250Z,1026
2022-10-07T06:03:42.172Z,1026
2022-10-07T06:05:42.170Z,1026
2022-10-07T06:07:42.519Z,1026
2022-10-07T06:09:42.178Z,1026
2022-10-07T06:11:42.194Z,1026
2022-10-07T06:13:42.212Z,1027
2022-10-07T06:15:42.215Z,1027
2022-10-07T06:17:42.464Z,1027
2022-10-07T06:19:42.175Z,1027
2022-10-07T06:21:42.274Z,1027
2022-10-07T06:23:42.175Z,1027
2022-10-07T06:25:46.439Z,1027
2022-10-07T06:29:42.187Z,1027
2022-10-07T06:31:45.209Z,1027
2022-10-07T06:33:42.213Z,1027
2022-10-07T06:35:42.179Z,1027
2022-10-07T06:37:42.497Z,1027
2022-10-07T06:39:42.619Z,1027
2022-10-07T06:41:42.205Z,1027
2022-10-07T06:45:44.017Z,1027
2022-10-07T06:47:42.357Z,1027
2022-10-07T06:49:42.194Z,1027
2022-10-07T06:51:42.320Z,1027
2022-10-07T06:53:42.179Z,1026
2022-10-07T06:55:42.197Z,1026
2022-10-07T06:57:45.567Z,1026
2022-10-07T07:01:43.093Z,1026
2022-10-07T07:03:42.222Z,1027
2022-10-07T07:05:45.344Z,1026
2022-10-07T07:07:45.766Z,1026
2022-10-07T07:09:42.239Z,1026
2022-10-07T07:11:42.614Z,1026
2022-10-07T07:13:43.824Z,1026
2022-10-07T07:15:42.723Z,1026
2022-10-07T07:17:42.490Z,1026
2022-10-07T07:19:42.277Z,1027
2022-10-07T07:21:42.993Z,1027
2022-10-07T07:23:42.210Z,1027
2022-10-07T07:25:43.907Z,1027
2022-10-07T07:27:42.178Z,1027
2022-10-07T07:29:42.216Z,1026
2022-10-07T07:31:43.778Z,1027
2022-10-07T07:35:43.910Z,1026
2022-10-07T07:37:42.596Z,1026
2022-10-07T07:39:42.181Z,1026
2022-10-07T07:43:42.193Z,1026
2022-10-07T07:45:42.325Z,1026
2022-10-07T07:47:44.215Z,1026
2022-10-07T07:49:46.577Z,1026
2022-10-07T07:51:42.183Z,1026
2022-10-07T07:53:42.218Z,1026
2022-10-07T07:55:42.323Z,1026
2022-10-07T07:57:46.845Z,1026
2022-10-07T07:59:44.424Z,1026
2022-10-07T08:01:42.277Z,1026
2022-10-07T08:03:42.216Z,1026
2022-10-07T08:05:43.279Z,1026
2022-10-07T08:07:44.983Z,1026
2022-10-07T08:09:47.126Z,1026
2022-10-07T08:11:42.430Z,1026
2022-10-07T08:13:43.896Z,1026
2022-10-07T08:15:42.229Z,1026
2022-10-07T08:17:46.503Z,1026
2022-10-07T08:19:42.181Z,1026
2022-10-07T08:21:42.219Z,1026
2022-10-07T08:23:43.485Z,1026
2022-10-07T08:25:43.237Z,1026
2022-10-07T08:27:43.537Z,1026
2022-10-07T08:29:44.684Z,1026
2022-10-07T08:31:42.201Z,1026
2022-10-07T08:39:03.443Z,1026
2022-10-07T08:43:19.070Z,1026
2022-10-07T08:43:24.077Z,1026
2022-10-07T08:49:36.641Z,1026
2022-10-07T08:54:57.238Z,1026
2022-10-07T09:05:08.570Z,1026
2022-10-07T09:09:48.421Z,1026
2022-10-07T09:12:20.045Z,1026
2022-10-07T09:15:04.221Z,1026
2022-10-07T09:19:27.998Z,1026
2022-10-07T09:21:20.628Z,1026
2022-10-07T09:27:13.036Z,1026
2022-10-07T09:40:12.285Z,1025
2022-10-07T09:42:11.427Z,1025
2022-10-07T09:44:12.126Z,1025
2022-10-07T09:46:07.736Z,1025
2022-10-07T09:48:12.734Z,1025
2022-10-07T09:50:08.028Z,1026
2022-10-07T09:52:12.205Z,1025
2022-10-07T09:54:12.399Z,1025
2022-10-07T09:56:12.363Z,1026
2022-10-07T09:58:10.918Z,1025
2022-10-07T10:00:11.837Z,1026
2022-10-07T10:02:11.799Z,1025
2022-10-07T10:04:10.402Z,1025
2022-10-07T10:06:12.190Z,1025
2022-10-07T10:08:12.670Z,1025
2022-10-07T10:10:11.805Z,1025
2022-10-07T10:12:10.960Z,1025
2022-10-07T10:14:12.342Z,1025
2022-10-07T10:16:09.103Z,1025
2022-10-07T10:18:09.362Z,1025
2022-10-07T10:20:11.996Z,1025
2022-10-07T10:22:11.487Z,1025
2022-10-07T10:24:11.689Z,1025
2022-10-07T10:26:12.133Z,1025
2022-10-07T10:28:11.751Z,1025
2022-10-07T10:30:12.274Z,1025
2022-10-07T10:32:12.325Z,1025
2022-10-07T10:34:11.446Z,1025
2022-10-07T10:36:12.648Z,1025
2022-10-07T10:38:12.516Z,1025
2022-10-07T10:40:11.312Z,1025
2022-10-07T10:44:10.749Z,1025
2022-10-07T10:46:10.577Z,1025
2022-10-07T10:48:11.816Z,1025
2022-10-07T10:50:12.166Z,1025
2022-10-07T10:52:13.355Z,1025
2022-10-07T10:56:12.671Z,1025
2022-10-07T10:58:10.408Z,1025
2022-10-07T11:00:12.650Z,1025
2022-10-07T11:02:12.509Z,1025
2022-10-07T11:04:07.763Z,1025
2022-10-07T11:06:12.484Z,1025
2022-10-07T11:08:12.131Z,1025
2022-10-07T11:10:07.849Z,1025
2022-10-07T11:12:11.755Z,1025
2022-10-07T11:14:12.355Z,1025
2022-10-07T11:16:09.174Z,1025
2022-10-07T11:18:12.278Z,1025
2022-10-07T11:20:11.171Z,1025
2022-10-07T11:22:08.067Z,1025
2022-10-07T11:24:11.831Z,1024
2022-10-07T11:28:07.974Z,1024
2022-10-07T11:30:12.781Z,1024
2022-10-07T11:32:12.299Z,1024
2022-10-07T11:34:10.022Z,1024
2022-10-07T11:36:12.793Z,1024
2022-10-07T11:40:07.730Z,1024
2022-10-07T11:42:12.769Z,1024
2022-10-07T11:44:12.042Z,1024
2022-10-07T11:46:12.007Z,1024
2022-10-07T11:48:12.616Z,1024
2022-10-07T11:50:12.154Z,1024
2022-10-07T11:52:11.451Z,1024
2022-10-07T11:58:10.853Z,1024
2022-10-07T12:00:12.309Z,1024
2022-10-07T12:02:15.600Z,1024
2022-10-07T12:04:09.721Z,1024
2022-10-07T12:08:12.362Z,1024
2022-10-07T12:10:09.142Z,1024
2022-10-07T12:12:11.820Z,1024
2022-10-07T12:14:11.730Z,1024
2022-10-07T12:16:11.413Z,1024
2022-10-07T12:18:12.459Z,1024
2022-10-07T12:20:12.342Z,1024
2022-10-07T12:22:11.616Z,1024
2022-10-07T12:24:12.152Z,1024
2022-10-07T12:26:11.209Z,1024
2022-10-07T12:28:09.074Z,1024
2022-10-07T12:30:12.024Z,1024
2022-10-07T12:32:11.426Z,1024
2022-10-07T12:34:11.923Z,1024
2022-10-07T12:36:12.407Z,1024
2022-10-07T12:38:12.304Z,1024
2022-10-07T12:40:09.187Z,1023
2022-10-07T12:42:12.388Z,1023
2022-10-07T12:44:12.727Z,1023
2022-10-07T12:46:09.174Z,1023
2022-10-07T12:50:11.200Z,1023
2022-10-07T12:52:11.732Z,1023
2022-10-07T12:54:11.964Z,1023
2022-10-07T12:58:11.814Z,1023
2022-10-07T13:00:12.338Z,1023
2022-10-07T13:02:12.675Z,1023
2022-10-07T13:04:07.814Z,1023
2022-10-07T13:06:12.581Z,1023
2022-10-07T13:10:11.059Z,1023
2022-10-07T13:12:12.449Z,1023
2022-10-07T13:14:12.180Z,1023
2022-10-07T13:16:10.888Z,1023
2022-10-07T13:18:12.817Z,1023
2022-10-07T13:20:12.229Z,1023
2022-10-07T13:22:07.745Z,1023
2022-10-07T13:24:11.647Z,1023
2022-10-07T13:28:11.759Z,1023
2022-10-07T13:30:12.368Z,1023
2022-10-07T13:32:12.348Z,1023
2022-10-07T13:34:08.133Z,1023
2022-10-07T13:36:12.613Z,1023
2022-10-07T13:38:12.362Z,1023
2022-10-07T13:40:08.081Z,1023
2022-10-07T13:42:12.658Z,1023
2022-10-07T13:44:12.667Z,1023
2022-10-07T13:46:10.201Z,1023
2022-10-07T13:48:12.454Z,1023
2022-10-07T13:50:12.445Z,1023
2022-10-07T13:52:11.689Z,1023
2022-10-07T13:54:11.801Z,1023
2022-10-07T13:56:12.403Z,1023
2022-10-07T13:58:10.519Z,1023
2022-10-07T14:00:12.716Z,1023
2022-10-07T14:04:10.056Z,1023
2022-10-07T14:08:12.360Z,1023
2022-10-07T14:10:08.999Z,1023
2022-10-07T14:12:11.161Z,1023
2022-10-07T14:14:11.841Z,1023
2022-10-07T14:16:07.853Z,1023
2022-10-07T14:18:12.721Z,1023
2022-10-07T14:20:12.485Z,1022
2022-10-07T14:22:09.286Z,1023
2022-10-07T14:24:12.529Z,1023
2022-10-07T14:26:11.476Z,1023
2022-10-07T14:28:12.132Z,1023
2022-10-07T14:32:11.996Z,1022
2022-10-07T14:34:12.469Z,1022
2022-10-07T14:36:12.751Z,1022
2022-10-07T14:38:12.405Z,1022
2022-10-07T14:40:10.947Z,1022
2022-10-07T14:46:08.766Z,1022
2022-10-07T14:48:12.120Z,1022
2022-10-07T14:52:09.098Z,1022
2022-10-07T14:58:09.506Z,1022
2022-10-07T15:00:12.118Z,1022
2022-10-07T15:04:09.189Z,1022
2022-10-07T15:06:12.631Z,1022
2022-10-07T15:08:12.449Z,1022
2022-10-07T15:10:11.331Z,1022
2022-10-07T15:12:12.356Z,1022
2022-10-07T15:14:12.215Z,1022
2022-10-07T15:16:11.964Z,1022
2022-10-07T15:18:12.665Z,1022
2022-10-07T15:20:11.083Z,1022
2022-10-07T15:22:11.485Z,1022
2022-10-07T15:28:10.520Z,1022
2022-10-07T15:32:12.129Z,1022
2022-10-07T15:34:11.812Z,1022
2022-10-07T15:36:12.352Z,1022
2022-10-07T15:38:11.968Z,1022
2022-10-07T15:40:10.321Z,1022
2022-10-07T15:42:12.419Z,1022
2022-10-07T15:46:11.934Z,1022
2022-10-07T15:50:12.152Z,1022
2022-10-07T15:52:08.119Z,1022
2022-10-07T15:54:12.496Z,1022
2022-10-07T15:56:12.299Z,1022
2022-10-07T15:58:12.668Z,1022
2022-10-07T16:02:14.729Z,1022
2022-10-07T16:04:11.103Z,1022
2022-10-07T16:08:15.056Z,1022
2022-10-07T16:10:12.920Z,1022
2022-10-07T16:14:14.386Z,1022
2022-10-07T16:16:09.603Z,1022
2022-10-07T16:22:11.327Z,1022
2022-10-07T16:26:16.539Z,1022
2022-10-07T16:28:12.626Z,1022
2022-10-07T16:30:11.348Z,1022
2022-10-07T16:34:09.946Z,1022
2022-10-07T16:36:11.538Z,1022
2022-10-07T16:38:16.351Z,1022
2022-10-07T16:40:08.064Z,1022
2022-10-07T16:42:15.370Z,1022
2022-10-07T16:44:16.556Z,1022
2022-10-07T16:46:13.991Z,1022
2022-10-07T16:50:16.596Z,1022
2022-10-07T16:52:11.993Z,1022
2022-10-07T16:58:12.056Z,1022
2022-10-07T17:02:14.781Z,1022
2022-10-07T17:04:13.087Z,1022
2022-10-07T17:06:15.942Z,1022
2022-10-07T17:08:15.608Z,1022
2022-10-07T17:10:12.541Z,1022
2022-10-07T17:12:10.800Z,1022
2022-10-07T17:14:16.345Z,1022
2022-10-07T17:16:12.549Z,1022
2022-10-07T17:20:14.552Z,1022
2022-10-07T17:22:10.483Z,1022
2022-10-07T17:24:15.838Z,1022
2022-10-07T17:26:16.703Z,1022
2022-10-07T17:28:13.446Z,1022
2022-10-07T17:30:16.303Z,1022
2022-10-07T17:32:15.849Z,1022
2022-10-07T17:34:09.961Z,1022
2022-10-07T17:36:10.799Z,1022
2022-10-07T17:40:09.741Z,1022
2022-10-07T17:44:15.222Z,1022
2022-10-07T17:46:12.597Z,1022
2022-10-07T17:48:16.699Z,1022
2022-10-07T17:58:08.198Z,1022
2022-10-07T18:02:16.625Z,1022
2022-10-07T18:04:08.331Z,1022
2022-10-07T18:08:18.539Z,1022
2022-10-07T18:10:07.512Z,1022
2022-10-07T18:12:10.407Z,1022
2022-10-07T18:14:08.172Z,1022
2022-10-07T18:16:11.636Z,1022
2022-10-07T18:20:18.323Z,1022
2022-10-07T18:22:08.471Z,1022
2022-10-07T18:28:17.019Z,1022
2022-10-07T18:32:14.486Z,1022
2022-10-07T18:34:13.526Z,1022
2022-10-07T18:38:16.964Z,1022
2022-10-07T18:40:11.264Z,1022
2022-10-07T18:42:18.015Z,1022
2022-10-07T18:44:16.317Z,1022
2022-10-07T18:46:11.225Z,1022
2022-10-07T18:48:08.137Z,1022
2022-10-07T18:52:13.216Z,1022
2022-10-07T18:58:07.880Z,1022
2022-10-07T19:00:18.387Z,1022
2022-10-07T19:02:16.737Z,1022
2022-10-07T19:04:09.334Z,1022
2022-10-07T19:06:13.190Z,1022
2022-10-07T19:08:18.576Z,1022
2022-10-07T19:10:07.825Z,1022
2022-10-07T19:16:07.580Z,1022
2022-10-07T19:22:07.856Z,1022
2022-10-07T19:24:18.475Z,1022
2022-10-07T19:26:21.246Z,1022
2022-10-07T19:28:12.370Z,1022
2022-10-07T19:30:18.486Z,1021
2022-10-07T19:34:17.009Z,1022
2022-10-07T19:40:17.574Z,1021
2022-10-07T19:44:18.502Z,1022
2022-10-07T19:46:10.350Z,1022
2022-10-07T19:50:17.760Z,1022
2022-10-07T19:52:12.166Z,1022
2022-10-07T19:58:07.582Z,1022
2022-10-07T20:00:18.550Z,1022
2022-10-07T20:04:15.021Z,1022
2022-10-07T20:10:08.340Z,1022
2022-10-07T20:14:18.482Z,1021
2022-10-07T20:16:16.760Z,1021
2022-10-07T20:18:18.485Z,1021
2022-10-07T20:22:09.762Z,1022
2022-10-07T20:28:07.914Z,1021
2022-10-07T20:30:17.718Z,1021
2022-10-07T20:32:18.559Z,1022
2022-10-07T20:34:17.741Z,1021
2022-10-07T20:40:17.914Z,1022
2022-10-07T20:44:12.396Z,1022
2022-10-07T20:46:09.728Z,1021
2022-10-07T20:48:12.548Z,1021
2022-10-07T20:52:07.118Z,1021
2022-10-07T20:56:12.444Z,1021
2022-10-07T20:58:11.116Z,1021
2022-10-07T21:02:12.021Z,1021
2022-10-07T21:04:09.304Z,1021
2022-10-07T21:08:12.620Z,1021
2022-10-07T21:10:08.374Z,1021
2022-10-07T21:12:12.036Z,1021
2022-10-07T21:16:07.917Z,1021
2022-10-07T21:18:12.209Z,1021
2022-10-07T21:20:12.005Z,1021
2022-10-07T21:22:08.257Z,1021
2022-10-07T21:24:12.861Z,1021
2022-10-07T21:26:12.499Z,1021
2022-10-07T21:28:12.052Z,1021
2022-10-07T21:30:12.248Z,1021
2022-10-07T21:34:11.771Z,1021
2022-10-07T21:38:12.531Z,1021
2022-10-07T21:40:11.451Z,1021
2022-10-07T21:46:12.777Z,1021
2022-10-07T21:50:11.869Z,1021
2022-10-07T21:52:08.888Z,1021
2022-10-07T21:54:12.772Z,1021
2022-10-07T21:58:12.038Z,1021
2022-10-07T22:00:12.545Z,1021
2022-10-07T22:02:12.894Z,1021
2022-10-07T22:04:10.371Z,1021
2022-10-07T22:06:12.201Z,1021
2022-10-07T22:08:12.500Z,1021
2022-10-07T22:10:11.862Z,1021
2022-10-07T22:12:11.824Z,1021
2022-10-07T22:14:13.260Z,1021
2022-10-07T22:16:09.904Z,1021
2022-10-07T22:18:12.402Z,1021
2022-10-07T22:20:12.305Z,1021
2022-10-07T22:22:11.592Z,1021
2022-10-07T22:24:12.705Z,1021
2022-10-07T22:26:12.387Z,1021
2022-10-07T22:30:12.292Z,1021
2022-10-07T22:32:12.265Z,1021
2022-10-07T22:34:10.553Z,1021
2022-10-07T22:36:12.851Z,1021
2022-10-07T22:38:11.755Z,1021
2022-10-07T22:40:10.156Z,1021
2022-10-07T22:42:12.137Z,1021
2022-10-07T22:46:09.738Z,1021
2022-10-07T22:48:12.502Z,1021
2022-10-07T22:50:12.416Z,1021
2022-10-07T22:52:12.048Z,1021
2022-10-07T22:56:12.808Z,1021
2022-10-07T22:58:08.314Z,1021
2022-10-07T23:00:12.649Z,1021
2022-10-07T23:04:07.592Z,1021
2022-10-07T23:06:12.393Z,1021
2022-10-07T23:10:11.195Z,1021
2022-10-07T23:14:12.404Z,1021
2022-10-07T23:16:11.236Z,1021
2022-10-07T23:22:10.609Z,1021
2022-10-07T23:26:12.643Z,1021
2022-10-07T23:28:09.968Z,1020
2022-10-07T23:30:12.423Z,1020
2022-10-07T23:32:12.468Z,1021
2022-10-07T23:34:09.433Z,1021
2022-10-07T23:36:12.428Z,1020
2022-10-07T23:38:12.423Z,1020
2022-10-07T23:40:11.854Z,1020
2022-10-07T23:42:12.431Z,1020
2022-10-07T23:46:08.438Z,1020
2022-10-07T23:50:12.529Z,1020
2022-10-07T23:52:07.572Z,1020
2022-10-07T23:54:11.677Z,1020
2022-10-07T23:56:12.420Z,1020
2022-10-07T23:58:10.901Z,1020
